Time;durP1;ratioP1;P1;durP2;ratioP2;P2;SDS_P1;SDS_P2;PMS_P1;PMS_P2;Temp;Humidity;BMP_temperature;BMP_pressure;BME280_temperature;BME280_humidity;BME280_pressure;Samples;Min_cycle;Max_cycle;Signal;HPM_P1;HPM_P2
2022/10/01 00:00:56;;;;;;;3.87;3.00;;;21.30;46.30;;;;;;4989107;28;20472;-81
2022/10/01 00:03:24;;;;;;;2.93;2.73;;;21.30;46.60;;;;;;4988008;28;20564;-83
2022/10/01 00:05:59;;;;;;;3.10;2.90;;;21.30;46.40;;;;;;4992686;28;20438;-82
2022/10/01 00:08:27;;;;;;;2.80;2.60;;;21.20;46.20;;;;;;4990734;28;20478;-84
2022/10/01 00:10:55;;;;;;;3.00;2.70;;;21.20;46.40;;;;;;4993727;28;20469;-80
2022/10/01 00:13:23;;;;;;;3.13;2.80;;;21.20;46.20;;;;;;4995956;28;20444;-81
2022/10/01 00:15:52;;;;;;;3.53;3.10;;;21.20;46.20;;;;;;4988570;28;20416;-83
2022/10/01 00:18:21;;;;;;;6.70;4.80;;;21.20;46.20;;;;;;4996466;28;20446;-83
2022/10/01 00:20:49;;;;;;;8.20;6.00;;;21.20;46.10;;;;;;5004708;28;20455;-81
2022/10/01 00:23:18;;;;;;;7.23;6.03;;;21.30;46.30;;;;;;5017530;28;20436;-81
2022/10/01 00:25:48;;;;;;;4.70;4.30;;;21.30;46.20;;;;;;5010934;28;20436;-81
2022/10/01 00:28:15;;;;;;;5.43;4.23;;;21.20;46.00;;;;;;5014819;28;20472;-81
2022/10/01 00:30:46;;;;;;;4.87;4.43;;;21.20;46.00;;;;;;4995510;28;20435;-81
2022/10/01 00:33:14;;;;;;;7.30;4.70;;;21.30;46.10;;;;;;4991794;28;20449;-80
2022/10/01 00:35:44;;;;;;;5.07;4.57;;;21.30;45.90;;;;;;4986705;28;20459;-81
2022/10/01 00:38:14;;;;;;;3.93;3.60;;;21.20;46.00;;;;;;4992649;28;20426;-81
2022/10/01 00:40:41;;;;;;;5.83;4.40;;;21.20;46.00;;;;;;4994137;28;20468;-80
2022/10/01 00:43:22;;;;;;;5.60;4.47;;;21.20;45.90;;;;;;4994480;28;20424;-81
2022/10/01 00:45:50;;;;;;;3.80;3.50;;;21.20;45.80;;;;;;4994869;28;20449;-80
2022/10/01 00:48:19;;;;;;;4.30;3.33;;;21.20;46.00;;;;;;4988978;28;20570;-81
2022/10/01 00:50:48;;;;;;;3.97;3.50;;;21.20;46.00;;;;;;4976720;28;20448;-81
2022/10/01 00:53:16;;;;;;;6.37;3.20;;;21.20;46.00;;;;;;4977417;28;20488;-81
2022/10/01 00:55:45;;;;;;;4.00;3.70;;;21.20;46.10;;;;;;4992061;28;20460;-81
2022/10/01 00:58:14;;;;;;;3.83;3.53;;;21.30;45.90;;;;;;4979444;28;20454;-82
2022/10/01 01:00:43;;;;;;;3.80;3.50;;;21.20;46.00;;;;;;4990864;28;20483;-82
2022/10/01 01:03:11;;;;;;;4.97;3.33;;;21.20;45.70;;;;;;4987110;28;20458;-81
2022/10/01 01:05:40;;;;;;;3.63;3.33;;;21.20;46.10;;;;;;4987209;28;20496;-81
2022/10/01 01:08:10;;;;;;;4.40;3.83;;;21.20;46.00;;;;;;4993450;28;20561;-81
2022/10/01 01:10:47;;;;;;;4.37;3.73;;;21.20;46.00;;;;;;4995776;28;20465;-81
2022/10/01 01:13:18;;;;;;;3.70;3.40;;;21.20;46.10;;;;;;4991810;28;20488;-82
2022/10/01 01:15:48;;;;;;;3.60;3.10;;;21.20;46.00;;;;;;4989031;28;20449;-81
2022/10/01 01:18:18;;;;;;;3.00;2.80;;;21.10;45.80;;;;;;4993783;28;20441;-81
2022/10/01 01:21:07;;;;;;;3.33;3.03;;;21.10;46.10;;;;;;4986298;28;20476;-81
2022/10/01 01:24:10;;;;;;;3.83;3.53;;;21.10;46.00;;;;;;4986943;28;20469;-81
2022/10/01 01:26:44;;;;;;;4.43;3.10;;;21.10;46.00;;;;;;4989973;28;20978;-81
2022/10/01 01:29:20;;;;;;;3.30;3.00;;;21.10;46.20;;;;;;4996976;28;20472;-83
2022/10/01 01:31:48;;;;;;;3.43;3.13;;;21.10;46.20;;;;;;4998269;28;20501;-82
2022/10/01 01:34:18;;;;;;;3.40;3.20;;;21.10;46.10;;;;;;5001541;28;20437;-80
2022/10/01 01:36:50;;;;;;;3.03;2.70;;;21.10;46.40;;;;;;5001180;28;20445;-81
2022/10/01 01:39:18;;;;;;;4.20;3.23;;;21.00;46.20;;;;;;4993603;28;20453;-80
2022/10/01 01:41:49;;;;;;;3.13;2.83;;;21.00;46.60;;;;;;4988829;28;20488;-80
2022/10/01 01:44:21;;;;;;;3.43;3.20;;;21.00;46.70;;;;;;4994224;28;20466;-81
2022/10/01 01:46:49;;;;;;;4.90;3.27;;;21.00;46.70;;;;;;4989916;28;20488;-81
2022/10/01 01:49:19;;;;;;;3.47;3.13;;;20.90;46.60;;;;;;4986805;28;20554;-82
2022/10/01 01:51:51;;;;;;;3.10;2.80;;;20.90;46.70;;;;;;4987215;28;20452;-81
2022/10/01 01:54:19;;;;;;;3.00;2.77;;;20.90;47.10;;;;;;4996930;28;20431;-82
2022/10/01 01:56:49;;;;;;;3.70;3.40;;;20.90;46.90;;;;;;4991310;28;20439;-82
2022/10/01 01:59:18;;;;;;;3.30;3.00;;;20.80;47.00;;;;;;4996770;28;20433;-81
2022/10/01 02:01:48;;;;;;;4.80;2.77;;;20.80;47.40;;;;;;4997587;28;20457;-83
2022/10/01 02:04:19;;;;;;;2.90;2.70;;;20.80;47.40;;;;;;4993856;28;20467;-84
2022/10/01 02:06:55;;;;;;;3.13;2.83;;;20.80;47.30;;;;;;4988695;28;20445;-83
2022/10/01 02:09:26;;;;;;;2.80;2.70;;;20.80;47.70;;;;;;4996663;28;20468;-83
2022/10/01 02:12:01;;;;;;;3.30;3.00;;;20.70;47.60;;;;;;4996531;28;20461;-82
2022/10/01 02:14:35;;;;;;;4.93;2.83;;;20.60;47.70;;;;;;4995241;28;20488;-82
2022/10/01 02:17:05;;;;;;;3.30;3.00;;;20.70;47.90;;;;;;4995372;28;20491;-82
2022/10/01 02:19:36;;;;;;;3.27;2.97;;;20.60;47.60;;;;;;4987835;28;20449;-82
2022/10/01 02:22:07;;;;;;;3.10;2.70;;;20.60;47.90;;;;;;4996146;28;20496;-81
2022/10/01 02:24:38;;;;;;;3.20;2.50;;;20.60;48.10;;;;;;4993798;28;20437;-82
2022/10/01 02:27:08;;;;;;;3.57;3.10;;;20.60;48.40;;;;;;4996003;28;20488;-82
2022/10/01 02:29:37;;;;;;;2.80;2.60;;;20.60;48.20;;;;;;4996389;28;20472;-82
2022/10/01 02:32:04;;;;;;;3.00;2.80;;;20.60;48.20;;;;;;4996498;28;20516;-82
2022/10/01 02:34:33;;;;;;;3.17;2.80;;;20.50;48.10;;;;;;4987824;28;20457;-82
2022/10/01 02:37:00;;;;;;;4.47;2.70;;;20.50;48.30;;;;;;4991249;28;20453;-82
2022/10/01 02:39:29;;;;;;;4.40;3.10;;;20.50;48.50;;;;;;4994003;28;20479;-82
2022/10/01 02:41:57;;;;;;;2.87;2.70;;;20.40;48.50;;;;;;4998268;28;20473;-82
2022/10/01 02:44:27;;;;;;;2.70;2.60;;;20.40;48.70;;;;;;4998424;28;20512;-82
2022/10/01 02:46:58;;;;;;;4.33;3.03;;;20.40;48.70;;;;;;5004571;28;20433;-81
2022/10/01 02:49:26;;;;;;;3.23;2.67;;;20.50;48.90;;;;;;4998087;28;20514;-81
2022/10/01 02:51:59;;;;;;;2.67;2.47;;;20.40;48.60;;;;;;5002121;28;20457;-81
2022/10/01 02:54:28;;;;;;;2.90;2.53;;;20.40;48.90;;;;;;4997886;28;20442;-81
2022/10/01 02:59:42;;;;;;;3.00;2.80;;;20.40;49.00;;;;;;4995945;28;20400;-81
2022/10/01 03:02:11;;;;;;;2.63;2.50;;;20.30;49.10;;;;;;4998529;28;20460;-81
2022/10/01 03:04:39;;;;;;;2.83;2.57;;;20.30;49.30;;;;;;4992332;28;20429;-82
2022/10/01 03:07:07;;;;;;;2.50;2.30;;;20.30;49.20;;;;;;5000460;28;20547;-82
2022/10/01 03:09:36;;;;;;;2.97;2.73;;;20.30;49.30;;;;;;4998987;28;20504;-82
2022/10/01 03:12:05;;;;;;;2.67;2.47;;;20.30;49.30;;;;;;4999255;28;20519;-82
2022/10/01 03:14:33;;;;;;;2.93;2.83;;;20.20;49.30;;;;;;5000266;28;20460;-81
2022/10/01 03:17:00;;;;;;;2.40;2.30;;;20.30;49.60;;;;;;5000105;28;20460;-82
2022/10/01 03:19:30;;;;;;;3.10;2.80;;;20.20;49.40;;;;;;5001884;28;20440;-82
2022/10/01 03:21:58;;;;;;;2.57;2.40;;;20.20;49.90;;;;;;5001249;28;20461;-82
2022/10/01 03:24:25;;;;;;;6.07;2.80;;;20.20;49.70;;;;;;5001293;28;20449;-82
2022/10/01 03:26:55;;;;;;;3.67;2.73;;;20.20;49.80;;;;;;5000927;28;20453;-82
2022/10/01 03:29:23;;;;;;;2.83;2.63;;;20.20;49.90;;;;;;4993389;28;20469;-81
2022/10/01 03:31:51;;;;;;;3.33;2.43;;;20.20;49.90;;;;;;4995587;28;20473;-82
2022/10/01 03:34:19;;;;;;;2.73;2.53;;;20.20;50.00;;;;;;5000378;28;20452;-82
2022/10/01 03:36:49;;;;;;;3.20;2.50;;;20.20;49.90;;;;;;4993932;28;20476;-82
2022/10/01 03:39:17;;;;;;;2.60;2.40;;;20.20;49.90;;;;;;4999787;28;20445;-82
2022/10/01 03:41:46;;;;;;;3.90;3.23;;;20.10;49.80;;;;;;5000846;28;20508;-82
2022/10/01 03:44:14;;;;;;;2.90;2.70;;;20.10;50.10;;;;;;5000250;28;20465;-82
2022/10/01 03:46:42;;;;;;;3.00;2.80;;;20.10;50.20;;;;;;4995922;28;20465;-82
2022/10/01 03:49:10;;;;;;;2.27;2.17;;;20.10;50.10;;;;;;4998091;28;20469;-82
2022/10/01 03:51:38;;;;;;;3.30;3.00;;;20.00;50.10;;;;;;4997454;28;20449;-82
2022/10/01 03:54:07;;;;;;;4.23;2.50;;;20.00;50.20;;;;;;5006391;28;20445;-82
2022/10/01 03:56:36;;;;;;;2.63;2.43;;;20.00;50.40;;;;;;5006199;28;20460;-81
2022/10/01 03:59:04;;;;;;;2.90;2.70;;;20.00;50.40;;;;;;5007212;28;20412;-82
2022/10/01 04:01:31;;;;;;;2.87;2.67;;;20.00;50.40;;;;;;5006628;28;20488;-83
2022/10/01 04:04:00;;;;;;;3.23;2.67;;;20.00;50.60;;;;;;5007277;28;20416;-83
2022/10/01 04:06:28;;;;;;;4.07;2.40;;;20.00;50.50;;;;;;4997622;28;20450;-83
2022/10/01 04:08:56;;;;;;;2.60;2.40;;;20.00;50.60;;;;;;5006957;28;20469;-82
2022/10/01 04:11:25;;;;;;;2.40;2.27;;;20.10;50.40;;;;;;5006002;28;20512;-83
2022/10/01 04:13:54;;;;;;;2.70;2.50;;;20.00;50.60;;;;;;5000670;28;20453;-83
2022/10/01 04:16:21;;;;;;;2.50;2.40;;;20.00;50.40;;;;;;5004090;28;20469;-82
2022/10/01 04:18:49;;;;;;;3.03;2.73;;;20.00;50.80;;;;;;5007216;28;20541;-82
2022/10/01 04:21:17;;;;;;;2.43;2.33;;;19.90;50.60;;;;;;5005163;28;20473;-83
2022/10/01 04:23:45;;;;;;;2.63;2.53;;;19.90;50.80;;;;;;5003714;28;20457;-82
2022/10/01 04:26:12;;;;;;;3.87;3.07;;;19.90;50.70;;;;;;5003473;28;20508;-84
2022/10/01 04:28:44;;;;;;;3.47;2.60;;;19.90;51.20;;;;;;5005560;28;20496;-83
2022/10/01 04:31:30;;;;;;;5.53;2.70;;;19.90;51.00;;;;;;5005802;28;20446;-83
2022/10/01 04:33:59;;;;;;;2.70;2.53;;;19.90;50.80;;;;;;5004295;28;20491;-83
2022/10/01 04:36:27;;;;;;;2.83;2.40;;;19.90;51.00;;;;;;5005273;28;20452;-82
2022/10/01 04:38:55;;;;;;;2.50;2.40;;;19.80;51.00;;;;;;5010135;28;20448;-83
2022/10/01 04:41:29;;;;;;;2.73;2.53;;;19.80;51.20;;;;;;4985230;28;20571;-82
2022/10/01 04:43:59;;;;;;;3.40;3.10;;;19.80;51.30;;;;;;4996481;28;20459;-82
2022/10/01 04:46:28;;;;;;;2.57;2.43;;;19.80;51.10;;;;;;4999938;28;20446;-81
2022/10/01 04:48:56;;;;;;;2.20;2.10;;;19.80;51.70;;;;;;5001257;28;20453;-81
2022/10/01 04:51:24;;;;;;;2.60;2.40;;;19.80;51.40;;;;;;5000415;28;20535;-82
2022/10/01 04:53:53;;;;;;;2.83;2.63;;;19.80;51.50;;;;;;4985807;28;20427;-81
2022/10/01 04:56:20;;;;;;;2.50;2.30;;;19.80;51.50;;;;;;4997625;28;20483;-81
2022/10/01 04:58:49;;;;;;;2.33;2.13;;;19.90;51.50;;;;;;4998033;28;20457;-82
2022/10/01 05:01:18;;;;;;;4.30;2.50;;;19.80;51.40;;;;;;4992744;28;20497;-82
2022/10/01 05:03:46;;;;;;;4.17;2.40;;;19.80;51.40;;;;;;4996694;28;20453;-82
2022/10/01 05:06:14;;;;;;;3.53;2.40;;;19.70;51.80;;;;;;4998199;28;20453;-82
2022/10/01 05:08:42;;;;;;;3.33;2.23;;;19.80;51.70;;;;;;5003710;28;20468;-82
2022/10/01 05:11:10;;;;;;;2.37;2.27;;;19.80;51.70;;;;;;5002458;28;20477;-82
2022/10/01 05:13:38;;;;;;;2.50;2.40;;;19.80;51.80;;;;;;4984847;28;20457;-82
2022/10/01 05:16:07;;;;;;;2.83;2.33;;;19.80;51.70;;;;;;4984996;28;20468;-84
2022/10/01 05:18:38;;;;;;;2.30;2.10;;;19.80;51.90;;;;;;5004543;28;20437;-83
2022/10/01 05:21:06;;;;;;;2.50;2.30;;;19.70;51.90;;;;;;5000195;28;20473;-82
2022/10/01 05:23:34;;;;;;;2.57;1.83;;;19.70;51.70;;;;;;5004157;28;20572;-82
2022/10/01 05:26:04;;;;;;;3.17;2.10;;;19.70;52.00;;;;;;5004101;28;20473;-82
2022/10/01 05:28:32;;;;;;;2.30;2.20;;;19.70;51.90;;;;;;4997481;28;20529;-82
2022/10/01 05:31:00;;;;;;;2.70;2.00;;;19.70;52.20;;;;;;5003607;28;20477;-82
2022/10/01 05:33:29;;;;;;;2.57;2.37;;;19.60;52.00;;;;;;5000981;28;20461;-82
2022/10/01 05:35:58;;;;;;;1.87;1.77;;;19.70;52.20;;;;;;5002504;28;20431;-82
2022/10/01 05:38:26;;;;;;;2.27;2.10;;;19.70;52.20;;;;;;5003158;28;20453;-82
2022/10/01 05:40:54;;;;;;;2.10;2.00;;;19.60;52.00;;;;;;4996454;28;20473;-82
2022/10/01 05:43:25;;;;;;;2.10;2.00;;;19.60;52.20;;;;;;5002393;28;20424;-83
2022/10/01 05:45:54;;;;;;;1.87;1.77;;;19.70;52.30;;;;;;5004037;28;20445;-82
2022/10/01 05:48:22;;;;;;;1.93;1.83;;;19.70;52.20;;;;;;4990194;28;20552;-82
2022/10/01 05:50:50;;;;;;;1.80;1.70;;;19.60;52.20;;;;;;5002684;28;20473;-83
2022/10/01 05:53:20;;;;;;;2.00;1.90;;;19.60;52.30;;;;;;5004981;28;20456;-83
2022/10/01 05:55:48;;;;;;;2.10;1.93;;;19.70;52.60;;;;;;5005094;28;20449;-83
2022/10/01 05:58:16;;;;;;;6.77;1.90;;;19.70;52.40;;;;;;5003677;28;20450;-83
2022/10/01 06:00:44;;;;;;;2.80;2.60;;;19.60;52.40;;;;;;5004801;28;20461;-83
2022/10/01 06:03:13;;;;;;;1.90;1.80;;;19.70;52.60;;;;;;5005574;28;20456;-83
2022/10/01 06:05:43;;;;;;;6.13;1.70;;;19.60;52.60;;;;;;5004175;28;20456;-83
2022/10/01 06:08:12;;;;;;;2.00;1.90;;;19.70;53.00;;;;;;4993469;28;20971;-84
2022/10/01 06:10:41;;;;;;;1.80;1.70;;;19.70;52.60;;;;;;5003342;28;20476;-84
2022/10/01 06:13:10;;;;;;;2.20;2.10;;;19.60;52.50;;;;;;5003896;28;20457;-84
2022/10/01 06:15:38;;;;;;;1.67;1.57;;;19.70;52.80;;;;;;4998316;28;20457;-83
2022/10/01 06:18:07;;;;;;;2.10;1.70;;;19.70;52.70;;;;;;4997616;28;20468;-84
2022/10/01 06:20:34;;;;;;;2.90;1.73;;;19.70;52.60;;;;;;5003844;28;20448;-83
2022/10/01 06:23:04;;;;;;;2.93;1.80;;;19.60;52.70;;;;;;5005807;28;20434;-83
2022/10/01 06:25:33;;;;;;;1.60;1.50;;;19.70;52.80;;;;;;4994143;28;20516;-82
2022/10/01 06:28:04;;;;;;;2.80;1.97;;;19.60;52.70;;;;;;4998915;28;20434;-83
2022/10/01 06:30:33;;;;;;;1.53;1.43;;;19.60;53.10;;;;;;4998247;28;20492;-82
2022/10/01 06:33:02;;;;;;;1.87;1.77;;;19.60;53.00;;;;;;4995873;28;20461;-83
2022/10/01 06:35:30;;;;;;;1.83;1.73;;;19.60;52.80;;;;;;4997261;28;20441;-83
2022/10/01 06:37:57;;;;;;;1.70;1.60;;;19.60;53.00;;;;;;4993989;28;20480;-83
2022/10/01 06:40:26;;;;;;;1.50;1.50;;;19.60;52.90;;;;;;4996272;28;20453;-85
2022/10/01 06:42:57;;;;;;;1.63;1.53;;;19.60;52.80;;;;;;4989962;28;20443;-84
2022/10/01 06:45:26;;;;;;;1.90;1.80;;;19.60;53.00;;;;;;4997416;28;20492;-82
2022/10/01 06:47:54;;;;;;;1.80;1.70;;;19.60;53.00;;;;;;4997706;28;20449;-83
2022/10/01 06:50:23;;;;;;;1.80;1.70;;;19.60;53.10;;;;;;4997902;28;20481;-83
2022/10/01 06:52:49;;;;;;;1.70;1.60;;;19.70;53.10;;;;;;4996185;28;20496;-84
2022/10/01 06:55:18;;;;;;;1.63;1.53;;;19.70;53.00;;;;;;4988256;28;20472;-82
2022/10/01 06:57:46;;;;;;;1.83;1.60;;;19.60;53.20;;;;;;4998712;28;20441;-84
2022/10/01 07:00:15;;;;;;;1.80;1.70;;;19.70;53.30;;;;;;4994318;28;20479;-83
2022/10/01 07:02:44;;;;;;;1.40;1.40;;;19.70;53.10;;;;;;4998616;28;20452;-82
2022/10/01 07:05:13;;;;;;;1.67;1.53;;;19.70;53.20;;;;;;5001969;28;20502;-82
2022/10/01 07:07:42;;;;;;;1.70;1.60;;;19.70;53.10;;;;;;5000685;28;20448;-84
2022/10/01 07:10:11;;;;;;;1.63;1.53;;;19.70;53.10;;;;;;4998381;28;20480;-84
2022/10/01 07:12:39;;;;;;;1.60;1.50;;;19.70;53.40;;;;;;5001406;28;20468;-84
2022/10/01 07:15:08;;;;;;;1.60;1.50;;;19.70;53.10;;;;;;5000214;28;20449;-83
2022/10/01 07:17:44;;;;;;;1.43;1.07;;;19.70;53.00;;;;;;4996938;28;20995;-84
2022/10/01 07:20:13;;;;;;;1.30;1.20;;;19.80;53.30;;;;;;4991008;28;20464;-83
2022/10/01 07:22:41;;;;;;;2.23;1.50;;;19.80;53.30;;;;;;5002473;28;20433;-84
2022/10/01 07:25:09;;;;;;;1.50;1.40;;;19.80;53.20;;;;;;4999582;28;20457;-83
2022/10/01 07:27:37;;;;;;;1.43;1.33;;;19.80;53.20;;;;;;4995205;28;20453;-84
2022/10/01 07:30:06;;;;;;;1.50;1.40;;;19.80;52.90;;;;;;4998099;28;20440;-82
2022/10/01 07:32:34;;;;;;;1.50;1.40;;;19.90;52.90;;;;;;5000283;28;20480;-82
2022/10/01 07:35:04;;;;;;;1.60;1.50;;;19.90;53.00;;;;;;4994700;28;20464;-82
2022/10/01 07:37:33;;;;;;;2.57;1.57;;;19.90;53.00;;;;;;5003055;28;20452;-82
2022/10/01 07:40:01;;;;;;;1.67;1.57;;;19.90;53.00;;;;;;5003985;28;20453;-82
2022/10/01 07:42:34;;;;;;;1.30;1.30;;;19.90;53.00;;;;;;5004110;28;20437;-83
2022/10/01 07:45:05;;;;;;;1.67;1.57;;;20.00;53.00;;;;;;5000219;28;20464;-82
2022/10/01 07:47:33;;;;;;;1.30;1.30;;;20.00;53.20;;;;;;5003970;28;20436;-82
2022/10/01 07:50:03;;;;;;;1.37;1.27;;;20.00;53.00;;;;;;5009427;28;20456;-83
2022/10/01 07:52:30;;;;;;;1.20;1.20;;;20.10;53.00;;;;;;4999080;28;20467;-82
2022/10/01 07:54:58;;;;;;;1.40;1.40;;;20.10;53.00;;;;;;5006084;28;20444;-83
2022/10/01 07:57:26;;;;;;;1.50;1.40;;;20.10;52.90;;;;;;4998884;28;20995;-83
2022/10/01 07:59:54;;;;;;;1.60;1.50;;;20.10;52.70;;;;;;5005255;28;20437;-82
2022/10/01 08:02:23;;;;;;;1.23;1.23;;;20.10;52.70;;;;;;5004386;28;20465;-83
2022/10/01 08:07:38;;;;;;;1.30;1.30;;;20.20;53.00;;;;;;5004446;28;20932;-83
2022/10/01 08:10:06;;;;;;;1.40;1.40;;;20.20;52.80;;;;;;4995871;28;20473;-83
2022/10/01 08:12:34;;;;;;;1.97;1.40;;;20.20;52.80;;;;;;5000884;28;20473;-83
2022/10/01 08:15:02;;;;;;;1.47;1.37;;;20.20;53.00;;;;;;4997933;28;20462;-83
2022/10/01 08:17:30;;;;;;;1.40;1.30;;;20.20;52.60;;;;;;4995837;28;20437;-83
2022/10/01 08:19:58;;;;;;;1.60;1.50;;;20.30;53.10;;;;;;5004472;28;20449;-84
2022/10/01 08:22:26;;;;;;;1.93;1.70;;;20.40;53.00;;;;;;5002289;28;20450;-82
2022/10/01 08:24:56;;;;;;;1.90;1.50;;;20.40;52.80;;;;;;5002695;28;20434;-84
2022/10/01 08:27:24;;;;;;;1.30;1.30;;;20.40;52.80;;;;;;5001358;28;20484;-83
2022/10/01 08:29:52;;;;;;;2.30;1.50;;;20.40;52.70;;;;;;4999347;28;20460;-83
2022/10/01 08:32:20;;;;;;;2.00;1.47;;;20.50;52.90;;;;;;5000835;28;20477;-83
2022/10/01 08:34:48;;;;;;;1.53;1.43;;;20.50;52.80;;;;;;5005788;28;20430;-82
2022/10/01 08:37:25;;;;;;;2.50;1.70;;;20.50;52.70;;;;;;5004786;28;20456;-83
2022/10/01 08:39:55;;;;;;;1.87;1.77;;;20.60;52.70;;;;;;5004880;28;20444;-83
2022/10/01 08:42:38;;;;;;;1.60;1.50;;;20.70;52.50;;;;;;4999073;28;20457;-84
2022/10/01 08:45:10;;;;;;;1.77;1.67;;;20.70;52.50;;;;;;4999194;28;20432;-84
2022/10/01 08:47:38;;;;;;;1.57;1.47;;;20.70;52.40;;;;;;5004810;28;20488;-84
2022/10/01 08:50:13;;;;;;;1.50;1.40;;;20.70;52.50;;;;;;5004091;28;20480;-84
2022/10/01 08:52:42;;;;;;;1.10;1.10;;;20.80;52.40;;;;;;5004345;28;20480;-83
2022/10/01 08:55:13;;;;;;;1.43;1.40;;;20.90;53.10;;;;;;5003564;28;20442;-83
2022/10/01 08:57:43;;;;;;;1.50;1.40;;;21.10;52.50;;;;;;5004634;28;20445;-83
2022/10/01 09:00:13;;;;;;;1.33;1.33;;;21.30;52.20;;;;;;5002241;28;20485;-83
2022/10/01 09:02:42;;;;;;;1.67;1.53;;;21.50;52.10;;;;;;4997220;28;20472;-83
2022/10/01 09:05:16;;;;;;;1.50;1.40;;;21.80;51.60;;;;;;5003579;28;20453;-83
2022/10/01 09:07:53;;;;;;;1.87;1.77;;;22.00;51.40;;;;;;5004092;28;20449;-83
2022/10/01 09:10:27;;;;;;;1.20;1.20;;;22.10;51.10;;;;;;5003466;28;20457;-84
2022/10/01 09:13:12;;;;;;;1.60;1.50;;;22.20;51.10;;;;;;4997202;28;20456;-83
2022/10/01 09:15:42;;;;;;;1.60;1.50;;;22.30;51.40;;;;;;4997123;28;20412;-84
2022/10/01 09:18:15;;;;;;;1.53;1.43;;;22.40;51.30;;;;;;4991827;28;20434;-84
2022/10/01 09:20:45;;;;;;;1.40;1.40;;;22.80;51.60;;;;;;4995255;28;20469;-84
2022/10/01 09:23:18;;;;;;;1.60;1.50;;;23.10;51.20;;;;;;4996788;28;20449;-85
2022/10/01 09:25:50;;;;;;;2.10;1.57;;;23.30;50.60;;;;;;4987791;28;20424;-85
2022/10/01 09:28:20;;;;;;;1.43;1.33;;;23.30;50.60;;;;;;4993802;28;20452;-84
2022/10/01 09:30:53;;;;;;;1.27;1.27;;;23.50;50.90;;;;;;4999573;28;20475;-84
2022/10/01 09:33:22;;;;;;;1.20;1.10;;;23.50;50.50;;;;;;4996708;28;20473;-85
2022/10/01 09:35:53;;;;;;;1.70;1.60;;;23.50;50.40;;;;;;4994089;28;20432;-84
2022/10/01 09:38:25;;;;;;;1.43;1.43;;;23.50;50.70;;;;;;4998349;28;20456;-84
2022/10/01 09:40:56;;;;;;;1.63;1.53;;;23.70;51.20;;;;;;4998524;28;20444;-84
2022/10/01 09:43:28;;;;;;;1.80;1.63;;;24.10;51.30;;;;;;4993779;28;20431;-83
2022/10/01 09:45:56;;;;;;;1.80;1.70;;;24.40;51.20;;;;;;5001682;28;20542;-84
2022/10/01 09:48:28;;;;;;;1.70;1.60;;;24.60;51.00;;;;;;5003780;28;20445;-84
2022/10/01 09:50:58;;;;;;;1.87;1.77;;;25.00;51.10;;;;;;5003302;28;20439;-84
2022/10/01 09:53:31;;;;;;;3.10;1.60;;;25.30;50.70;;;;;;4994647;28;20481;-79
2022/10/01 09:56:05;;;;;;;1.50;1.40;;;25.70;50.50;;;;;;5003314;28;20441;-81
2022/10/01 09:58:32;;;;;;;1.80;1.70;;;25.90;50.30;;;;;;5003083;28;20937;-79
2022/10/01 10:01:01;;;;;;;1.57;1.47;;;26.10;50.20;;;;;;4993788;28;20449;-79
2022/10/01 10:03:30;;;;;;;2.07;1.97;;;26.30;50.00;;;;;;5000064;28;20423;-80
2022/10/01 10:06:00;;;;;;;1.77;1.67;;;26.50;49.80;;;;;;5003477;28;20483;-80
2022/10/01 10:08:29;;;;;;;1.53;1.43;;;26.30;49.20;;;;;;5003258;28;20420;-80
2022/10/01 10:10:59;;;;;;;1.87;1.77;;;26.30;49.60;;;;;;4992163;28;20452;-83
2022/10/01 10:13:33;;;;;;;2.40;1.90;;;26.10;49.70;;;;;;4997994;28;20480;-82
2022/10/01 10:16:09;;;;;;;4.07;1.90;;;26.00;50.10;;;;;;5000024;28;20440;-82
2022/10/01 10:18:38;;;;;;;2.27;2.00;;;26.10;50.20;;;;;;4998129;28;20482;-81
2022/10/01 10:21:07;;;;;;;1.80;1.70;;;26.20;50.40;;;;;;5004087;28;20443;-82
2022/10/01 10:23:47;;;;;;;2.00;1.90;;;26.20;50.30;;;;;;4997981;28;20429;-80
2022/10/01 10:26:19;;;;;;;1.93;1.50;;;26.40;50.70;;;;;;4994708;28;20448;-80
2022/10/01 10:28:48;;;;;;;1.60;1.50;;;26.60;50.20;;;;;;4978222;28;20432;-81
2022/10/01 10:31:19;;;;;;;1.97;1.70;;;26.90;50.40;;;;;;4984358;28;20483;-81
2022/10/01 10:33:48;;;;;;;1.70;1.60;;;27.10;50.40;;;;;;5015607;28;20520;-81
2022/10/01 10:36:16;;;;;;;1.63;1.53;;;27.40;50.00;;;;;;5004060;28;20429;-81
2022/10/01 10:38:46;;;;;;;2.60;1.67;;;27.70;50.00;;;;;;4995685;28;20416;-80
2022/10/01 10:41:16;;;;;;;1.90;1.80;;;28.00;49.80;;;;;;4996398;28;20452;-79
2022/10/01 10:43:44;;;;;;;2.60;1.80;;;28.10;49.30;;;;;;4996825;28;20445;-81
2022/10/01 10:46:21;;;;;;;2.83;1.80;;;28.50;49.40;;;;;;4996536;28;20449;-81
2022/10/01 10:48:50;;;;;;;2.47;1.50;;;28.70;49.10;;;;;;4986256;28;20449;-81
2022/10/01 10:51:18;;;;;;;2.07;1.90;;;28.70;48.50;;;;;;4997436;28;20469;-81
2022/10/01 10:53:48;;;;;;;2.00;1.60;;;28.80;48.40;;;;;;4988694;28;20474;-79
2022/10/01 10:56:18;;;;;;;3.87;2.20;;;29.10;48.20;;;;;;4973754;28;20446;-79
2022/10/01 10:58:47;;;;;;;3.57;1.90;;;29.00;48.00;;;;;;4972165;28;20438;-78
2022/10/01 11:01:19;;;;;;;3.33;1.77;;;29.00;48.10;;;;;;4975176;28;20528;-77
2022/10/01 11:03:48;;;;;;;1.70;1.60;;;28.80;48.20;;;;;;4978469;28;20427;-79
2022/10/01 11:06:17;;;;;;;1.67;1.57;;;28.60;48.40;;;;;;4983621;28;20458;-80
2022/10/01 11:08:45;;;;;;;1.70;1.60;;;28.40;48.60;;;;;;4996438;28;20456;-79
2022/10/01 11:11:19;;;;;;;2.20;1.70;;;28.20;48.90;;;;;;4997451;28;20447;-79
2022/10/01 11:13:58;;;;;;;2.20;1.57;;;28.00;49.10;;;;;;4998041;28;20457;-80
2022/10/01 11:16:35;;;;;;;2.10;2.00;;;27.80;49.40;;;;;;4999234;28;20423;-79
2022/10/01 11:19:14;;;;;;;4.07;1.73;;;27.80;49.60;;;;;;4998996;28;20505;-82
2022/10/01 11:21:49;;;;;;;2.37;1.60;;;30.10;49.50;;;;;;5000731;28;20464;-80
2022/10/01 11:24:25;;;;;;;2.00;1.60;;;30.70;46.10;;;;;;4994645;28;20449;-84
2022/10/01 11:26:55;;;;;;;1.70;1.60;;;32.40;44.20;;;;;;5001474;28;20456;-80
2022/10/01 11:29:32;;;;;;;1.70;1.60;;;31.80;42.10;;;;;;5001505;28;20448;-82
2022/10/01 11:32:05;;;;;;;1.83;1.63;;;31.30;42.90;;;;;;5000914;28;20483;-82
2022/10/01 11:34:55;;;;;;;3.17;1.90;;;30.50;44.10;;;;;;4992697;28;20482;-82
2022/10/01 11:37:31;;;;;;;2.70;1.83;;;29.90;45.10;;;;;;4981351;28;20453;-79
2022/10/01 11:40:04;;;;;;;1.67;1.57;;;29.40;45.90;;;;;;4986224;28;20505;-80
2022/10/01 11:42:36;;;;;;;4.60;2.00;;;29.20;47.30;;;;;;5001065;28;20404;-81
2022/10/01 11:45:06;;;;;;;3.30;1.77;;;31.00;46.40;;;;;;4998728;28;20444;-81
2022/10/01 11:47:36;;;;;;;2.13;1.63;;;31.60;44.80;;;;;;5000515;28;20456;-81
2022/10/01 11:50:06;;;;;;;1.70;1.50;;;31.60;42.20;;;;;;4997890;28;20506;-82
2022/10/01 11:52:36;;;;;;;2.30;1.67;;;30.80;42.90;;;;;;4994280;28;20445;-81
2022/10/01 12:00:52;;;;;;;2.20;2.00;;;28.80;46.20;;;;;;5008621;28;20480;-80
2022/10/01 12:03:22;;;;;;;3.43;1.90;;;28.20;47.10;;;;;;4989687;28;20431;-81
2022/10/01 12:05:51;;;;;;;5.80;2.50;;;27.70;47.80;;;;;;5006486;28;20416;-81
2022/10/01 12:08:23;;;;;;;3.73;1.80;;;27.40;48.50;;;;;;5002902;28;20430;-80
2022/10/01 12:10:53;;;;;;;4.07;2.17;;;27.10;49.10;;;;;;4998503;28;20467;-81
2022/10/01 12:13:24;;;;;;;3.17;2.27;;;26.80;49.50;;;;;;5000379;28;20478;-80
2022/10/01 12:15:54;;;;;;;9.00;2.13;;;26.60;50.00;;;;;;4998919;28;20420;-82
2022/10/01 12:18:27;;;;;;;3.63;2.47;;;26.30;50.30;;;;;;5003764;28;20431;-84
2022/10/01 12:20:56;;;;;;;3.17;2.30;;;26.10;50.70;;;;;;4993966;28;20482;-84
2022/10/01 12:23:26;;;;;;;5.70;2.40;;;26.00;50.70;;;;;;4997088;28;20933;-83
2022/10/01 12:25:57;;;;;;;2.50;2.20;;;26.10;51.40;;;;;;4986136;28;20453;-84
2022/10/01 12:28:27;;;;;;;4.60;2.00;;;27.60;49.80;;;;;;4993732;28;20429;-83
2022/10/01 12:30:58;;;;;;;2.77;1.90;;;28.00;47.50;;;;;;4999823;28;20443;-83
2022/10/01 12:33:40;;;;;;;5.53;2.40;;;27.70;47.70;;;;;;5002897;28;20495;-82
2022/10/01 12:36:11;;;;;;;7.03;2.50;;;27.30;48.20;;;;;;5005298;28;20480;-83
2022/10/01 12:38:49;;;;;;;3.47;1.77;;;27.10;48.70;;;;;;5004971;28;20442;-82
2022/10/01 12:41:28;;;;;;;2.23;2.00;;;27.80;49.10;;;;;;5004403;28;20819;-82
2022/10/01 12:44:05;;;;;;;2.07;1.87;;;28.40;47.20;;;;;;5004567;28;20440;-82
2022/10/01 12:46:36;;;;;;;4.60;2.00;;;28.50;47.10;;;;;;5007992;28;20460;-84
2022/10/01 12:49:10;;;;;;;3.60;2.00;;;29.00;46.70;;;;;;4995657;28;20460;-84
2022/10/01 12:51:40;;;;;;;2.17;1.97;;;31.00;45.10;;;;;;5000376;28;20503;-83
2022/10/01 12:54:32;;;;;;;4.50;1.90;;;32.80;40.90;;;;;;4999746;28;20472;-84
2022/10/01 12:57:04;;;;;;;2.33;2.03;;;34.20;38.80;;;;;;4992354;28;20461;-83
2022/10/01 12:59:46;;;;;;;3.90;1.90;;;35.30;36.20;;;;;;4989954;28;20461;-84
2022/10/01 13:02:38;;;;;;;3.80;2.10;;;34.70;36.00;;;;;;4996185;28;20453;-83
2022/10/01 13:05:16;;;;;;;2.00;1.80;;;34.40;38.00;;;;;;4985891;28;20453;-83
2022/10/01 13:08:07;;;;;;;2.60;1.60;;;35.80;36.10;;;;;;4999470;28;20445;-83
2022/10/01 13:10:46;;;;;;;2.50;1.77;;;36.80;34.90;;;;;;4990770;28;20484;-84
2022/10/01 13:13:15;;;;;;;2.03;1.60;;;37.70;33.20;;;;;;4980568;28;20446;-83
2022/10/01 13:15:46;;;;;;;3.00;1.50;;;38.50;32.40;;;;;;4981052;28;20436;-85